createdAt,value
2023-02-24T00:00:47.412Z,51.17
2023-02-24T00:03:15.134Z,50.30
2023-02-24T00:05:44.600Z,51.67
2023-02-24T00:08:12.162Z,53.92
2023-02-24T00:10:39.742Z,49.90
2023-02-24T00:13:07.638Z,50.63
2023-02-24T00:15:35.593Z,51.90
2023-02-24T00:18:07.302Z,51.28
2023-02-24T00:20:35.001Z,51.58
2023-02-24T00:23:02.501Z,51.00
2023-02-24T00:25:29.921Z,49.92
2023-02-24T00:28:01.644Z,48.70
2023-02-24T00:30:31.552Z,49.13
2023-02-24T00:33:01.443Z,51.15
2023-02-24T00:35:31.596Z,47.60
2023-02-24T00:37:59.588Z,51.05
2023-02-24T00:40:27.656Z,49.05
2023-02-24T00:42:58.265Z,51.45
2023-02-24T00:45:25.783Z,50.75
2023-02-24T00:47:53.263Z,49.60
2023-02-24T00:50:20.826Z,47.35
2023-02-24T00:52:48.745Z,49.63
2023-02-24T00:55:16.349Z,51.20
2023-02-24T00:57:45.368Z,50.97
2023-02-24T01:00:15.192Z,49.17
2023-02-24T01:02:45.179Z,48.42
2023-02-24T01:05:13.258Z,48.95
2023-02-24T01:07:40.703Z,51.08
2023-02-24T01:10:08.826Z,55.35
2023-02-24T01:12:39.187Z,52.00
2023-02-24T01:15:10.106Z,52.55
2023-02-24T01:17:40.055Z,51.90
2023-02-24T01:20:16.664Z,53.97
2023-02-24T01:22:49.713Z,53.60
2023-02-24T01:25:17.948Z,51.33
2023-02-24T01:27:45.362Z,51.45
2023-02-24T01:30:16.450Z,53.90
2023-02-24T01:32:44.749Z,52.00
2023-02-24T01:35:12.631Z,50.33
2023-02-24T01:37:40.141Z,52.40
2023-02-24T01:40:18.966Z,52.15
2023-02-24T01:42:47.902Z,51.35
2023-02-24T01:45:21.638Z,51.75
2023-02-24T01:47:50.016Z,55.70
2023-02-24T01:50:21.941Z,54.88
2023-02-24T01:52:53.081Z,55.53
2023-02-24T01:55:25.555Z,51.03
2023-02-24T01:57:54.693Z,52.40
2023-02-24T02:00:34.060Z,51.42
2023-02-24T02:03:08.489Z,50.35
2023-02-24T02:05:39.679Z,50.05
2023-02-24T02:08:09.323Z,51.08
2023-02-24T02:10:40.958Z,49.38
2023-02-24T02:13:08.667Z,50.72
2023-02-24T02:15:46.978Z,49.20
2023-02-24T02:18:22.062Z,49.65
2023-02-24T02:20:55.889Z,48.45
2023-02-24T02:23:35.563Z,48.67
2023-02-24T02:26:22.173Z,51.10
2023-02-24T02:28:49.690Z,49.55
2023-02-24T02:31:51.898Z,49.50
2023-02-24T02:34:45.450Z,48.90
2023-02-24T02:37:20.296Z,47.30
2023-02-24T02:40:00.210Z,51.15
2023-02-24T02:42:49.325Z,49.38
2023-02-24T02:45:41.858Z,51.20
2023-02-24T02:48:36.078Z,50.05
2023-02-24T02:51:24.673Z,50.13
2023-02-24T02:54:08.026Z,51.75
2023-02-24T02:56:52.928Z,48.95
2023-02-24T03:01:55.794Z,45.95
2023-02-24T03:04:26.679Z,46.28
2023-02-24T03:07:00.884Z,51.13
2023-02-24T03:09:32.533Z,47.28
2023-02-24T03:12:05.326Z,50.70
2023-02-24T03:14:40.400Z,47.58
2023-02-24T03:17:16.335Z,48.80
2023-02-24T03:19:46.647Z,50.90
2023-02-24T03:22:25.459Z,49.13
2023-02-24T03:24:53.544Z,51.63
2023-02-24T03:27:31.862Z,49.22
2023-02-24T03:30:07.519Z,49.70
2023-02-24T03:32:44.239Z,50.45
2023-02-24T03:35:21.798Z,49.45
2023-02-24T03:37:55.361Z,51.58
2023-02-24T03:40:30.770Z,49.97
2023-02-24T03:43:25.792Z,45.85
2023-02-24T03:45:55.882Z,49.30
2023-02-24T03:48:27.228Z,53.10
2023-02-24T03:50:56.776Z,50.85
2023-02-24T03:54:13.319Z,52.63
2023-02-24T03:57:01.853Z,50.58
2023-02-24T03:59:52.961Z,50.65
2023-02-24T04:02:26.151Z,47.92
2023-02-24T04:05:12.193Z,52.22
2023-02-24T04:08:13.473Z,52.10
2023-02-24T04:10:52.632Z,52.75
2023-02-24T04:13:35.351Z,54.15
2023-02-24T04:16:30.038Z,55.83
2023-02-24T04:19:03.688Z,55.30
2023-02-24T04:21:33.585Z,55.75
2023-02-24T04:24:08.617Z,55.22
2023-02-24T04:26:40.881Z,57.17
2023-02-24T04:29:13.995Z,56.17
2023-02-24T04:31:41.773Z,57.70
2023-02-24T04:34:09.882Z,57.58
2023-02-24T04:36:42.021Z,57.63
2023-02-24T04:39:17.106Z,56.63
2023-02-24T04:41:49.501Z,55.00
2023-02-24T04:44:18.483Z,55.83
2023-02-24T04:46:47.184Z,54.10
2023-02-24T04:49:15.009Z,53.28
2023-02-24T04:51:42.681Z,55.20
2023-02-24T04:54:17.473Z,58.13
2023-02-24T04:56:47.973Z,56.00
2023-02-24T04:59:15.913Z,54.72
2023-02-24T05:01:44.496Z,54.33
2023-02-24T05:04:17.692Z,51.70
2023-02-24T05:06:45.863Z,55.95
2023-02-24T05:09:22.637Z,53.45
2023-02-24T05:11:53.380Z,56.60
2023-02-24T05:14:21.641Z,53.97
2023-02-24T05:16:50.321Z,53.92
2023-02-24T05:19:49.248Z,53.10
2023-02-24T05:22:17.822Z,54.00
2023-02-24T05:24:49.870Z,53.35
2023-02-24T05:27:17.556Z,51.80
2023-02-24T05:29:45.227Z,55.08
2023-02-24T05:32:13.329Z,54.40
2023-02-24T05:34:42.788Z,54.95
2023-02-24T05:37:10.906Z,55.03
2023-02-24T05:39:38.514Z,56.22
2023-02-24T05:42:07.223Z,57.88
2023-02-24T05:44:35.763Z,58.53
2023-02-24T05:47:05.635Z,53.75
2023-02-24T05:49:38.918Z,56.92
2023-02-24T05:52:10.126Z,54.60
2023-02-24T05:54:43.999Z,54.88
2023-02-24T05:57:15.452Z,57.92
2023-02-24T05:59:44.742Z,54.33
2023-02-24T06:02:14.904Z,55.50
2023-02-24T06:04:51.621Z,55.05
2023-02-24T06:07:24.915Z,52.88
2023-02-24T06:09:56.756Z,52.75
2023-02-24T06:12:33.827Z,52.17
2023-02-24T06:15:07.592Z,51.42
2023-02-24T06:17:35.661Z,53.42
2023-02-24T06:20:13.624Z,51.40
2023-02-24T06:22:42.622Z,49.47
2023-02-24T06:25:12.075Z,50.20
2023-02-24T06:27:39.873Z,50.83
2023-02-24T06:30:11.424Z,51.85
2023-02-24T06:32:39.155Z,50.47
2023-02-24T06:35:07.037Z,50.78
2023-02-24T06:37:35.848Z,51.53
2023-02-24T06:40:09.145Z,47.70
2023-02-24T06:42:36.722Z,51.63
2023-02-24T06:45:07.009Z,51.47
2023-02-24T06:47:35.429Z,51.80
2023-02-24T06:50:06.625Z,57.83
2023-02-24T06:52:34.735Z,50.55
2023-02-24T06:55:25.372Z,50.05
2023-02-24T06:58:04.613Z,52.20
2023-02-24T07:00:42.967Z,52.22
2023-02-24T07:03:15.259Z,52.88
2023-02-24T07:05:50.345Z,49.63
2023-02-24T07:08:21.147Z,51.92
2023-02-24T07:10:57.032Z,50.72
2023-02-24T07:13:25.660Z,51.03
2023-02-24T07:15:53.146Z,49.58
2023-02-24T07:18:20.676Z,47.38
2023-02-24T07:20:49.411Z,48.03
2023-02-24T07:23:17.615Z,47.90
2023-02-24T07:25:46.456Z,49.72
2023-02-24T07:28:14.561Z,48.92
2023-02-24T07:30:42.435Z,58.63
2023-02-24T07:33:10.727Z,60.00
2023-02-24T07:35:41.515Z,60.00
2023-02-24T07:38:09.588Z,63.13
2023-02-24T07:40:37.032Z,53.38
2023-02-24T07:43:06.490Z,54.15
2023-02-24T07:45:34.382Z,54.15
2023-02-24T07:48:01.872Z,52.38
2023-02-24T07:50:32.819Z,53.00
2023-02-24T07:53:03.994Z,50.58
2023-02-24T07:55:35.939Z,53.38
2023-02-24T07:58:06.036Z,52.17
2023-02-24T08:00:55.192Z,51.83
2023-02-24T08:03:23.953Z,50.45
2023-02-24T08:05:53.873Z,50.63
2023-02-24T08:08:25.678Z,52.53
2023-02-24T08:11:04.331Z,51.63
2023-02-24T08:13:37.904Z,49.88
2023-02-24T08:16:06.024Z,53.70
2023-02-24T08:18:37.417Z,52.38
2023-02-24T08:21:04.987Z,52.97
2023-02-24T08:23:40.583Z,52.17
2023-02-24T08:26:12.793Z,51.33
2023-02-24T08:29:09.654Z,50.72
2023-02-24T08:36:02.413Z,51.13
2023-02-24T08:38:44.782Z,53.05
2023-02-24T08:41:21.382Z,49.65
2023-02-24T08:43:49.345Z,50.97
2023-02-24T08:46:21.464Z,52.40
2023-02-24T08:48:55.748Z,49.05
2023-02-24T08:51:30.341Z,49.30
2023-02-24T08:56:29.617Z,48.15
2023-02-24T08:59:05.903Z,51.25
2023-02-24T09:01:39.679Z,49.22
2023-02-24T09:04:11.008Z,52.30
2023-02-24T09:06:43.375Z,50.30
2023-02-24T09:09:19.393Z,49.42
2023-02-24T09:11:49.520Z,49.30
2023-02-24T09:14:27.046Z,50.72
2023-02-24T09:17:05.540Z,49.08
2023-02-24T09:19:47.412Z,51.05
2023-02-24T09:22:57.846Z,51.72
2023-02-24T09:25:40.960Z,51.63
2023-02-24T09:28:09.922Z,48.90
2023-02-24T09:30:51.002Z,49.75
2023-02-24T09:33:27.712Z,50.22
2023-02-24T09:36:20.357Z,48.97
2023-02-24T09:39:01.612Z,52.17
2023-02-24T09:42:04.446Z,50.58
2023-02-24T09:44:44.973Z,49.80
2023-02-24T09:47:20.018Z,50.30
2023-02-24T09:49:58.677Z,51.40
2023-02-24T09:52:43.100Z,49.70
2023-02-24T09:55:35.895Z,49.63
2023-02-24T09:58:17.146Z,51.15
2023-02-24T10:01:22.384Z,49.08
2023-02-24T10:06:24.682Z,49.40
2023-02-24T10:09:11.737Z,51.45
2023-02-24T10:11:53.556Z,52.33
2023-02-24T10:14:42.622Z,54.30
2023-02-24T10:17:24.294Z,54.33
2023-02-24T10:20:13.916Z,54.35
2023-02-24T10:22:52.394Z,53.65
2023-02-24T10:25:41.535Z,53.30
2023-02-24T10:28:59.021Z,53.33
2023-02-24T10:31:48.163Z,52.80
2023-02-24T10:34:26.442Z,54.47
2023-02-24T10:36:57.525Z,53.05
2023-02-24T10:39:26.105Z,52.80
2023-02-24T10:41:57.890Z,53.80
2023-02-24T10:44:36.058Z,51.13
2023-02-24T10:47:13.194Z,49.90
2023-02-24T10:49:58.213Z,52.45
2023-02-24T10:52:50.342Z,49.63
2023-02-24T10:55:28.410Z,52.47
2023-02-24T10:58:06.811Z,47.97
2023-02-24T11:01:03.809Z,49.38
2023-02-24T11:03:43.656Z,49.75
2023-02-24T11:06:40.534Z,51.58
2023-02-24T11:09:29.208Z,47.00
2023-02-24T11:12:28.580Z,50.58
2023-02-24T11:15:17.623Z,49.10
2023-02-24T11:17:57.184Z,51.53
2023-02-24T11:20:48.053Z,51.42
2023-02-24T11:23:30.502Z,50.33
2023-02-24T11:26:24.513Z,48.97
2023-02-24T11:29:00.926Z,47.42
2023-02-24T11:32:03.178Z,47.17
2023-02-24T11:35:04.440Z,47.72
2023-02-24T11:37:45.101Z,49.22
2023-02-24T11:40:26.939Z,49.42
2023-02-24T11:43:01.370Z,45.38
2023-02-24T13:09:04.653Z,41.17
2023-02-24T13:11:40.476Z,38.65
2023-02-24T13:14:46.531Z,40.50
2023-02-24T13:17:16.650Z,41.38
2023-02-24T13:19:45.092Z,41.33
2023-02-24T13:22:42.789Z,39.13
2023-02-24T13:25:21.593Z,39.55
2023-02-24T13:28:06.039Z,41.85
2023-02-24T13:30:44.246Z,40.60
2023-02-24T13:33:24.927Z,41.67
2023-02-24T13:36:10.739Z,41.70
2023-02-24T13:38:40.920Z,41.65
2023-02-24T13:41:32.266Z,42.97
2023-02-24T13:44:01.380Z,40.58
2023-02-24T13:46:58.738Z,39.22
2023-02-24T13:49:36.214Z,40.30
2023-02-24T13:52:32.664Z,41.45
2023-02-24T13:55:14.629Z,42.33
2023-02-24T13:58:17.468Z,39.28
2023-02-24T14:01:06.776Z,39.60
2023-02-24T14:03:50.196Z,40.35
2023-02-24T14:06:26.449Z,40.00
2023-02-24T14:09:06.373Z,40.15
2023-02-24T14:11:37.786Z,40.63
2023-02-24T14:14:05.853Z,38.88
2023-02-24T14:16:46.087Z,36.38
2023-02-24T14:19:32.280Z,36.25
2023-02-24T14:22:03.925Z,35.38
2023-02-24T14:24:42.837Z,33.63
2023-02-24T14:27:33.149Z,35.80
2023-02-24T14:30:00.775Z,33.45
2023-02-24T14:32:31.775Z,32.03
2023-02-24T14:34:59.567Z,32.00
2023-02-24T14:37:30.519Z,32.53
2023-02-24T14:40:00.074Z,31.98
2023-02-24T14:42:28.978Z,33.03
2023-02-24T14:44:58.324Z,32.60
2023-02-24T14:47:28.906Z,31.70
2023-02-24T14:50:02.771Z,32.65
2023-02-24T14:52:59.299Z,31.98
2023-02-24T14:55:31.246Z,31.95
2023-02-24T14:58:14.259Z,31.63
2023-02-24T15:00:47.937Z,31.48
2023-02-24T15:03:24.366Z,31.57
2023-02-24T15:05:57.730Z,30.42
2023-02-24T15:08:30.581Z,32.90
2023-02-24T15:10:59.074Z,29.02
2023-02-24T15:13:58.325Z,31.67
2023-02-24T15:16:33.772Z,30.38
2023-02-24T15:19:01.954Z,31.90
2023-02-24T15:21:43.034Z,31.40
2023-02-24T15:24:31.300Z,32.42
2023-02-24T15:27:14.044Z,32.38
2023-02-24T15:29:43.399Z,33.50
2023-02-24T15:32:21.665Z,33.78
2023-02-24T15:34:49.414Z,32.25
2023-02-24T15:37:45.376Z,30.02
2023-02-24T15:40:18.970Z,33.30
2023-02-24T15:42:50.803Z,33.65
2023-02-24T15:45:29.544Z,32.55
2023-02-24T15:48:00.421Z,33.30
2023-02-24T15:50:30.047Z,31.50
2023-02-24T15:53:04.586Z,30.38
2023-02-24T15:55:32.820Z,33.87
2023-02-24T15:58:04.764Z,34.08
2023-02-24T16:00:32.506Z,32.97
2023-02-24T16:03:00.004Z,31.90
2023-02-24T16:05:27.585Z,33.28
2023-02-24T16:07:55.224Z,32.45
2023-02-24T16:10:28.298Z,32.72
2023-02-24T16:13:01.616Z,32.67
2023-02-24T16:15:37.992Z,34.00
2023-02-24T16:18:14.156Z,33.50
2023-02-24T16:20:41.848Z,33.80
2023-02-24T16:23:10.836Z,33.15
2023-02-24T16:25:42.852Z,35.05
2023-02-24T16:28:19.168Z,33.35
2023-02-24T16:30:48.422Z,34.78
2023-02-24T16:33:18.640Z,33.40
2023-02-24T16:35:46.458Z,34.58
2023-02-24T16:38:15.885Z,30.95
2023-02-24T16:40:46.497Z,35.03
2023-02-24T16:43:14.767Z,33.08
2023-02-24T16:45:45.122Z,36.35
2023-02-24T16:48:21.835Z,34.03
2023-02-24T16:50:49.750Z,35.65
2023-02-24T16:53:20.641Z,35.55
2023-02-24T16:55:48.667Z,37.42
2023-02-24T16:58:16.599Z,36.55
2023-02-24T17:00:46.536Z,35.90
2023-02-24T17:03:29.529Z,38.50
2023-02-24T17:05:57.823Z,34.90
2023-02-24T17:08:25.811Z,37.38
2023-02-24T17:10:53.748Z,37.40
2023-02-24T17:13:22.257Z,38.10
2023-02-24T17:17:59.216Z,39.03
2023-02-24T17:20:35.175Z,36.53
2023-02-24T17:23:26.154Z,37.67
2023-02-24T17:26:15.623Z,37.85
2023-02-24T17:29:17.249Z,37.00
2023-02-24T17:46:11.921Z,43.80
2023-02-24T17:48:44.944Z,45.88
2023-02-24T17:51:19.878Z,46.63
2023-02-24T17:53:52.574Z,44.00
2023-02-24T17:57:19.846Z,41.17
2023-02-24T18:07:35.154Z,39.40
2023-02-24T18:10:28.304Z,38.72
2023-02-24T18:13:15.206Z,37.92
2023-02-24T18:25:25.960Z,36.70
2023-02-24T18:28:22.466Z,40.35
2023-02-24T18:31:23.845Z,40.17
2023-02-24T18:34:01.417Z,37.22
2023-02-24T18:36:29.129Z,38.53
2023-02-24T18:38:58.004Z,37.72
2023-02-24T18:41:25.962Z,37.55
2023-02-24T18:43:56.737Z,37.15
2023-02-24T18:46:26.461Z,37.60
2023-02-24T18:48:56.120Z,36.13
2023-02-24T18:51:29.187Z,36.85
2023-02-24T18:54:02.947Z,36.13
2023-02-24T18:56:33.012Z,37.80
2023-02-24T18:59:02.497Z,36.20
2023-02-24T19:01:39.122Z,35.30
2023-02-24T19:04:08.644Z,36.70
2023-02-24T19:06:37.047Z,38.75
2023-02-24T19:09:10.568Z,37.25
2023-02-24T19:11:39.769Z,38.17
2023-02-24T19:14:08.533Z,37.92
2023-02-24T19:16:38.031Z,36.95
2023-02-24T19:19:05.705Z,37.97
2023-02-24T19:21:33.804Z,38.58
2023-02-24T19:24:08.194Z,38.03
2023-02-24T19:29:04.568Z,35.85
2023-02-24T19:31:33.555Z,37.83
2023-02-24T19:34:07.591Z,39.50
2023-02-24T19:36:36.798Z,39.30
2023-02-24T19:39:05.863Z,37.00
2023-02-24T19:41:34.465Z,38.20
2023-02-24T19:44:01.904Z,39.60
2023-02-24T19:46:34.398Z,39.65
2023-02-24T19:49:09.005Z,39.38
2023-02-24T19:51:36.809Z,40.63
2023-02-24T19:54:06.386Z,37.45
2023-02-24T19:56:39.102Z,38.65
2023-02-24T19:59:08.120Z,39.83
2023-02-24T20:01:35.714Z,39.78
2023-02-24T20:04:04.483Z,44.25
2023-02-24T20:06:38.916Z,42.05
2023-02-24T20:09:09.021Z,41.03
2023-02-24T20:11:39.224Z,42.65
2023-02-24T20:14:15.778Z,40.63
2023-02-24T20:16:46.022Z,41.58
2023-02-24T20:19:15.141Z,41.05
2023-02-24T20:21:42.664Z,39.97
2023-02-24T20:24:14.057Z,42.03
2023-02-24T20:26:43.719Z,42.30
2023-02-24T20:29:11.605Z,42.58
2023-02-24T20:31:40.542Z,42.30
2023-02-24T20:34:10.602Z,42.25
2023-02-24T20:36:38.712Z,43.28
2023-02-24T20:39:07.114Z,41.88
2023-02-24T20:41:34.587Z,42.78
2023-02-24T20:44:02.124Z,42.88
2023-02-24T20:46:31.556Z,40.80
2023-02-24T20:49:02.838Z,43.05
2023-02-24T20:51:32.186Z,41.30
2023-02-24T20:54:00.629Z,42.50
2023-02-24T20:56:33.118Z,40.78
2023-02-24T20:59:11.269Z,43.40
2023-02-24T21:01:39.488Z,42.35
2023-02-24T21:04:08.904Z,42.53
2023-02-24T21:06:37.244Z,42.35
2023-02-24T21:09:05.521Z,41.78
2023-02-24T21:11:33.860Z,41.65
2023-02-24T21:14:01.421Z,42.38
2023-02-24T21:16:28.938Z,41.42
2023-02-24T21:18:58.773Z,40.63
2023-02-24T21:21:26.832Z,40.22
2023-02-24T21:23:55.436Z,42.22
2023-02-24T21:26:27.670Z,41.97
2023-02-24T21:28:59.417Z,41.92
2023-02-24T21:31:27.771Z,41.08
2023-02-24T21:33:55.862Z,42.67
2023-02-24T21:36:25.992Z,41.58
2023-02-24T21:38:54.975Z,39.72
2023-02-24T21:41:23.754Z,41.28
2023-02-24T21:43:55.559Z,43.13
2023-02-24T21:46:28.458Z,41.13
2023-02-24T21:48:57.996Z,41.28
2023-02-24T21:51:27.274Z,40.95
2023-02-24T21:53:55.463Z,40.47
2023-02-24T21:56:25.902Z,41.10
2023-02-24T21:58:58.803Z,41.70
2023-02-24T22:01:38.736Z,42.00
2023-02-24T22:04:19.067Z,43.78
2023-02-24T22:06:46.854Z,42.08
2023-02-24T22:09:25.682Z,42.08
2023-02-24T22:11:53.106Z,41.40
2023-02-24T22:14:21.397Z,44.05
2023-02-24T22:16:49.144Z,43.08
2023-02-24T22:19:19.084Z,43.42
2023-02-24T22:21:46.570Z,40.55
2023-02-24T22:24:16.350Z,41.22
2023-02-24T22:26:44.726Z,39.92
2023-02-24T22:29:12.314Z,40.63
2023-02-24T22:31:43.594Z,40.17
2023-02-24T22:34:12.405Z,41.83
2023-02-24T22:36:39.976Z,42.20
2023-02-24T22:39:09.052Z,42.78
2023-02-24T22:41:37.784Z,40.28
2023-02-24T22:44:08.630Z,39.75
2023-02-24T22:46:38.490Z,39.55
2023-02-24T22:49:06.510Z,40.00
2023-02-24T22:51:34.242Z,40.58
2023-02-24T22:54:01.843Z,41.60
2023-02-24T22:56:30.123Z,40.70
2023-02-24T22:58:59.215Z,40.83
2023-02-24T23:01:37.507Z,38.58
2023-02-24T23:04:16.223Z,40.78
2023-02-24T23:06:44.582Z,41.80
2023-02-24T23:09:13.371Z,41.08
2023-02-24T23:11:41.423Z,42.28
2023-02-24T23:14:13.823Z,41.35
2023-02-24T23:16:44.493Z,37.97
2023-02-24T23:19:16.348Z,37.95
2023-02-24T23:21:46.525Z,40.13
2023-02-24T23:24:15.627Z,42.45
2023-02-24T23:26:54.168Z,42.92
2023-02-24T23:29:25.073Z,41.15
2023-02-24T23:31:54.278Z,41.25
2023-02-24T23:34:58.539Z,42.25
2023-02-24T23:37:28.533Z,42.78
2023-02-24T23:39:56.621Z,44.42
2023-02-24T23:42:30.747Z,41.97
2023-02-24T23:58:05.956Z,43.25
